createdAt,value
2023-05-16T00:03:31.148Z,100
2023-05-16T00:13:31.313Z,100
2023-05-16T00:23:31.705Z,100
2023-05-16T00:33:32.093Z,100
2023-05-16T00:43:32.916Z,100
2023-05-16T01:03:33.531Z,100
2023-05-16T01:13:33.602Z,100
2023-05-16T01:23:33.816Z,100
2023-05-16T01:43:35.140Z,100
2023-05-16T01:53:35.958Z,100
2023-05-16T02:03:36.190Z,100
2023-05-16T02:13:37.030Z,100
2023-05-16T02:23:37.991Z,100
2023-05-16T02:33:38.227Z,100
2023-05-16T02:43:38.838Z,100
2023-05-16T02:53:38.997Z,100
2023-05-16T03:03:39.932Z,100
2023-05-16T03:13:40.085Z,99
2023-05-16T03:23:40.301Z,99
2023-05-16T03:33:40.969Z,100
2023-05-16T03:43:41.183Z,100
2023-05-16T03:53:41.736Z,100
2023-05-16T04:03:42.505Z,100
2023-05-16T04:13:42.767Z,100
2023-05-16T04:23:43.823Z,100
2023-05-16T04:33:44.178Z,100
2023-05-16T04:43:45.203Z,100
2023-05-16T04:53:46.112Z,100
2023-05-16T05:03:48.267Z,100
2023-05-16T05:13:47.318Z,100
2023-05-16T05:23:47.822Z,100
2023-05-16T05:33:48.337Z,100
2023-05-16T05:43:48.486Z,100
2023-05-16T05:53:49.379Z,100
2023-05-16T06:03:49.732Z,98
2023-05-16T06:13:50.636Z,96
2023-05-16T06:23:51.263Z,95
2023-05-16T06:33:51.937Z,92
2023-05-16T06:43:52.452Z,91
2023-05-16T07:03:54.075Z,85
2023-05-16T07:13:54.075Z,80
2023-05-16T07:23:54.894Z,78
2023-05-16T07:43:56.425Z,75
2023-05-16T08:13:57.769Z,72
2023-05-16T08:54:00.786Z,70
2023-05-16T09:03:59.934Z,68
2023-05-16T09:14:00.954Z,68
2023-05-16T09:24:01.121Z,67
2023-05-16T09:34:01.668Z,65
2023-05-16T09:44:02.160Z,65
2023-05-16T10:04:03.958Z,65
2023-05-16T10:14:05.533Z,62
2023-05-16T10:24:04.537Z,61
2023-05-16T10:34:05.542Z,62
2023-05-16T10:44:05.729Z,61
2023-05-16T10:54:05.914Z,62
2023-05-16T11:04:06.855Z,62
2023-05-16T11:14:07.197Z,65
2023-05-16T11:24:07.590Z,68
2023-05-16T11:34:08.081Z,61
2023-05-16T11:44:08.241Z,56
2023-05-16T11:54:08.858Z,55
2023-05-16T12:04:09.965Z,60
2023-05-16T12:14:10.131Z,60
2023-05-16T12:24:11.193Z,61
2023-05-16T12:34:11.660Z,60
2023-05-16T12:44:11.798Z,57
2023-05-16T12:54:12.528Z,56
2023-05-16T13:04:13.377Z,55
2023-05-16T13:14:13.948Z,54
2023-05-16T13:24:14.532Z,53
2023-05-16T13:34:15.276Z,55
2023-05-16T13:44:15.664Z,58
2023-05-16T14:04:16.913Z,58
2023-05-16T14:14:17.445Z,57
2023-05-16T14:24:18.400Z,56
2023-05-16T14:34:18.573Z,58
2023-05-16T14:54:20.231Z,65
2023-05-16T15:04:21.128Z,67
2023-05-16T15:14:22.050Z,66
2023-05-16T15:24:22.883Z,66
2023-05-16T15:44:24.861Z,60
2023-05-16T15:54:25.867Z,64
2023-05-16T16:04:26.530Z,66
2023-05-16T16:14:27.071Z,67
2023-05-16T16:24:27.436Z,67
2023-05-16T16:34:28.253Z,65
2023-05-16T16:54:29.668Z,68
2023-05-16T17:04:29.767Z,69
2023-05-16T17:14:30.715Z,70
2023-05-16T17:24:31.039Z,71
2023-05-16T17:34:31.618Z,71
2023-05-16T17:44:32.165Z,72
2023-05-16T18:04:33.448Z,72
2023-05-16T18:14:34.212Z,72
2023-05-16T18:24:34.287Z,72
2023-05-16T18:54:36.039Z,74
2023-05-16T19:04:36.317Z,74
2023-05-16T19:14:37.358Z,75
2023-05-16T19:24:37.881Z,75
2023-05-16T19:34:38.150Z,76
2023-05-16T19:44:38.995Z,77
2023-05-16T19:54:39.206Z,77
2023-05-16T20:04:39.499Z,77
2023-05-16T20:14:40.171Z,77
2023-05-16T20:34:41.800Z,76
2023-05-16T20:44:41.916Z,77
2023-05-16T20:54:41.931Z,78
2023-05-16T21:04:42.676Z,78
2023-05-16T23:34:52.148Z,92
